Time;durP1;ratioP1;P1;durP2;ratioP2;P2;SDS_P1;SDS_P2;PMS_P1;PMS_P2;Temp;Humidity;BMP_temperature;BMP_pressure;BME280_temperature;BME280_humidity;BME280_pressure;Samples;Min_cycle;Max_cycle;Signal;HPM_P1;HPM_P2
2021/09/18 00:01:19;;;;;;;0.80;0.50;;;14.00;99.90;;;;;;4897916;29;20858;-75
2021/09/18 00:03:47;;;;;;;0.80;0.40;;;14.00;99.90;;;;;;4898665;29;20414;-76
2021/09/18 00:06:16;;;;;;;0.80;0.40;;;13.90;99.90;;;;;;4898915;29;20510;-76
2021/09/18 00:08:44;;;;;;;0.80;0.50;;;13.90;99.90;;;;;;4898577;29;20438;-76
2021/09/18 00:11:13;;;;;;;0.80;0.40;;;14.00;99.90;;;;;;4898438;29;20412;-75
2021/09/18 00:13:41;;;;;;;0.80;0.40;;;13.90;99.90;;;;;;4898554;29;20457;-76
2021/09/18 00:16:09;;;;;;;0.80;0.50;;;13.70;99.90;;;;;;4898662;29;20466;-76
2021/09/18 00:18:37;;;;;;;0.80;0.40;;;13.70;99.90;;;;;;4898695;29;20431;-76
2021/09/18 00:21:05;;;;;;;0.80;0.50;;;13.70;99.90;;;;;;4898784;29;20502;-76
2021/09/18 00:23:34;;;;;;;0.80;0.50;;;13.90;99.90;;;;;;4898355;29;20916;-76
2021/09/18 00:26:02;;;;;;;0.80;0.40;;;14.20;99.90;;;;;;4898444;29;20976;-76
2021/09/18 00:28:31;;;;;;;0.80;0.40;;;14.10;99.90;;;;;;4898820;29;20438;-76
2021/09/18 00:30:59;;;;;;;0.80;0.40;;;14.20;99.90;;;;;;4898521;29;20431;-76
2021/09/18 00:33:27;;;;;;;0.80;0.40;;;14.50;99.90;;;;;;4898272;29;20431;-76
2021/09/18 00:35:55;;;;;;;0.80;0.40;;;14.40;99.90;;;;;;4898699;29;20417;-76
2021/09/18 00:38:23;;;;;;;0.80;0.43;;;14.40;99.90;;;;;;4881338;29;20442;-76
2021/09/18 00:40:52;;;;;;;0.80;0.50;;;14.20;99.90;;;;;;4899094;29;20422;-76
2021/09/18 00:43:21;;;;;;;0.80;0.50;;;14.10;99.90;;;;;;4899123;29;20414;-76
2021/09/18 00:45:50;;;;;;;0.80;0.40;;;14.00;99.90;;;;;;4898762;29;20462;-76
2021/09/18 00:48:18;;;;;;;0.83;0.40;;;13.80;99.90;;;;;;4899587;29;20423;-75
2021/09/18 00:50:46;;;;;;;0.80;0.40;;;13.60;99.90;;;;;;4898441;29;20465;-75
2021/09/18 00:53:15;;;;;;;0.80;0.50;;;13.50;99.90;;;;;;4898401;29;20434;-75
2021/09/18 00:55:43;;;;;;;0.80;0.50;;;13.40;99.90;;;;;;4898153;29;20455;-75
2021/09/18 00:58:12;;;;;;;0.80;0.40;;;13.50;99.90;;;;;;4898077;29;20945;-75
2021/09/18 01:00:40;;;;;;;0.80;0.40;;;13.50;99.90;;;;;;4898039;29;20434;-75
2021/09/18 01:03:10;;;;;;;0.80;0.43;;;13.50;99.90;;;;;;4898197;29;20449;-75
2021/09/18 01:05:38;;;;;;;0.80;0.40;;;13.50;99.90;;;;;;4897889;29;20461;-75
2021/09/18 01:08:07;;;;;;;0.80;0.50;;;13.40;99.90;;;;;;4897445;29;20474;-76
2021/09/18 01:10:35;;;;;;;0.80;0.50;;;13.30;99.90;;;;;;4897855;29;20520;-76
2021/09/18 01:13:05;;;;;;;0.80;0.50;;;13.30;99.90;;;;;;4897794;29;20419;-75
2021/09/18 01:15:36;;;;;;;0.80;0.40;;;13.40;99.90;;;;;;4897005;29;20470;-76
2021/09/18 01:18:06;;;;;;;0.80;0.40;;;13.40;99.90;;;;;;4897865;29;20389;-76
2021/09/18 01:20:37;;;;;;;0.80;0.40;;;13.40;99.90;;;;;;4897911;29;20458;-76
2021/09/18 01:23:11;;;;;;;0.80;0.50;;;13.40;99.90;;;;;;4883072;29;20448;-77
2021/09/18 01:25:44;;;;;;;0.80;0.50;;;13.30;99.90;;;;;;4883644;29;20560;-75
2021/09/18 01:28:13;;;;;;;0.80;0.50;;;13.40;99.90;;;;;;4898777;29;20606;-74
2021/09/18 01:30:41;;;;;;;0.80;0.40;;;13.50;99.90;;;;;;4897450;29;20437;-75
2021/09/18 01:33:10;;;;;;;0.80;0.50;;;13.50;99.90;;;;;;4897695;29;20410;-75
2021/09/18 01:35:38;;;;;;;0.80;0.40;;;13.40;99.90;;;;;;4897863;29;20536;-75
2021/09/18 01:38:07;;;;;;;0.80;0.50;;;13.40;99.90;;;;;;4897764;29;20407;-75
2021/09/18 01:40:37;;;;;;;0.80;0.40;;;13.40;99.90;;;;;;4897820;29;20936;-76
2021/09/18 01:43:07;;;;;;;0.80;0.40;;;13.50;99.90;;;;;;4897789;29;20405;-75
2021/09/18 01:45:36;;;;;;;0.80;0.50;;;13.70;99.90;;;;;;4897736;29;20452;-75
2021/09/18 01:48:06;;;;;;;0.80;0.50;;;13.90;99.90;;;;;;4880590;29;20466;-75
2021/09/18 01:50:39;;;;;;;0.90;0.50;;;13.90;99.90;;;;;;4897302;29;20870;-75
2021/09/18 01:53:09;;;;;;;0.80;0.50;;;14.00;99.90;;;;;;4897234;29;20422;-75
2021/09/18 01:55:37;;;;;;;0.80;0.40;;;13.90;99.90;;;;;;4897346;29;20454;-75
2021/09/18 01:58:07;;;;;;;0.80;0.50;;;13.90;99.90;;;;;;4896951;29;20490;-75
2021/09/18 02:00:39;;;;;;;0.80;0.50;;;13.70;99.90;;;;;;4895702;29;20450;-75
2021/09/18 02:03:07;;;;;;;0.80;0.40;;;13.80;99.90;;;;;;4897337;29;20844;-76
2021/09/18 02:05:35;;;;;;;0.80;0.40;;;13.70;99.90;;;;;;4880283;29;20473;-77
2021/09/18 02:08:04;;;;;;;0.80;0.40;;;13.80;99.90;;;;;;4896937;29;21036;-76
2021/09/18 02:10:33;;;;;;;0.80;0.50;;;13.80;99.90;;;;;;4896774;29;20442;-76
2021/09/18 02:13:03;;;;;;;0.80;0.40;;;13.90;99.90;;;;;;4897181;29;20490;-76
2021/09/18 02:15:32;;;;;;;0.80;0.40;;;13.90;99.90;;;;;;4911505;23;20597;-75
2021/09/18 02:18:01;;;;;;;0.80;0.50;;;14.10;99.90;;;;;;4895985;29;20445;-76
2021/09/18 02:20:30;;;;;;;0.80;0.40;;;14.00;99.90;;;;;;4896066;29;20439;-76
2021/09/18 02:22:59;;;;;;;0.80;0.50;;;14.20;99.90;;;;;;4896032;29;20816;-75
2021/09/18 02:25:28;;;;;;;0.80;0.40;;;14.30;99.90;;;;;;4896100;29;20433;-75
2021/09/18 02:27:57;;;;;;;0.80;0.40;;;14.40;99.90;;;;;;4896662;29;20509;-75
2021/09/18 02:30:27;;;;;;;0.80;0.50;;;14.30;99.90;;;;;;4895932;29;20940;-75
2021/09/18 02:32:57;;;;;;;0.80;0.50;;;14.20;99.90;;;;;;4896238;29;20461;-75
2021/09/18 02:35:28;;;;;;;0.80;0.50;;;14.10;99.90;;;;;;4895559;29;20485;-76
2021/09/18 02:37:57;;;;;;;0.80;0.40;;;14.10;99.90;;;;;;4895728;29;20426;-74
2021/09/18 02:40:27;;;;;;;0.80;0.40;;;14.00;99.90;;;;;;4895777;29;20486;-74
2021/09/18 02:42:57;;;;;;;0.80;0.40;;;14.00;99.90;;;;;;4896082;29;20438;-74
2021/09/18 02:45:25;;;;;;;0.80;0.40;;;14.00;99.90;;;;;;4895707;29;20425;-74
2021/09/18 02:47:54;;;;;;;0.90;0.67;;;13.90;99.90;;;;;;4895864;29;20556;-75
2021/09/18 02:50:24;;;;;;;0.80;0.50;;;13.80;99.90;;;;;;4895936;29;20897;-75
2021/09/18 02:52:52;;;;;;;0.80;0.40;;;13.70;99.90;;;;;;4896211;29;20435;-74
2021/09/18 02:55:20;;;;;;;0.80;0.40;;;13.70;99.90;;;;;;4896089;29;20440;-75
2021/09/18 02:57:48;;;;;;;0.80;0.50;;;13.80;99.90;;;;;;4878908;29;20564;-74
2021/09/18 03:00:17;;;;;;;0.80;0.40;;;13.80;99.90;;;;;;4895571;29;20443;-74
2021/09/18 03:02:45;;;;;;;0.80;0.40;;;13.70;99.90;;;;;;4895787;29;20431;-74
2021/09/18 03:05:15;;;;;;;0.80;0.40;;;13.70;99.90;;;;;;4895538;29;20912;-75
2021/09/18 03:07:44;;;;;;;0.80;0.40;;;13.80;99.90;;;;;;4895268;29;20524;-75
2021/09/18 03:10:12;;;;;;;0.80;0.40;;;14.00;99.90;;;;;;4895826;29;20478;-75
2021/09/18 03:12:41;;;;;;;0.80;0.40;;;14.00;99.90;;;;;;4895839;29;20855;-76
2021/09/18 03:15:11;;;;;;;0.80;0.50;;;14.00;99.90;;;;;;4895764;29;20459;-76
2021/09/18 03:17:39;;;;;;;0.80;0.50;;;14.00;99.90;;;;;;4895582;29;20422;-76
2021/09/18 03:20:08;;;;;;;0.80;0.40;;;14.00;99.90;;;;;;4895695;29;20466;-76
2021/09/18 03:22:36;;;;;;;0.80;0.40;;;13.90;99.90;;;;;;4895793;29;20509;-74
2021/09/18 03:25:08;;;;;;;0.80;0.50;;;13.70;99.90;;;;;;4895687;29;20517;-75
2021/09/18 03:27:36;;;;;;;0.80;0.40;;;13.50;99.90;;;;;;4895276;29;20448;-75
2021/09/18 03:30:06;;;;;;;0.80;0.40;;;13.40;99.90;;;;;;4895478;29;20521;-74
2021/09/18 03:32:34;;;;;;;0.80;0.40;;;13.20;99.90;;;;;;4895444;29;20839;-74
2021/09/18 03:35:03;;;;;;;0.80;0.50;;;13.20;99.90;;;;;;4878518;29;20517;-74
2021/09/18 03:37:34;;;;;;;0.80;0.40;;;13.20;99.90;;;;;;4895406;29;20482;-74
2021/09/18 03:40:02;;;;;;;0.80;0.40;;;13.10;99.90;;;;;;4898131;29;20426;-75
2021/09/18 03:42:32;;;;;;;0.80;0.50;;;13.20;99.90;;;;;;4898788;29;20516;-76
2021/09/18 03:45:00;;;;;;;0.80;0.50;;;13.20;99.90;;;;;;4898892;29;20433;-76
2021/09/18 03:47:28;;;;;;;0.80;0.40;;;13.20;99.90;;;;;;4898422;29;20975;-76
2021/09/18 03:49:57;;;;;;;0.80;0.40;;;13.20;99.90;;;;;;4898577;29;20852;-76
2021/09/18 03:52:26;;;;;;;0.80;0.50;;;13.10;99.90;;;;;;4898614;29;20500;-76
2021/09/18 03:54:55;;;;;;;0.80;0.50;;;13.10;99.90;;;;;;4899331;29;20482;-75
2021/09/18 03:57:23;;;;;;;0.80;0.40;;;13.00;99.90;;;;;;4899114;29;20458;-76
2021/09/18 03:59:52;;;;;;;0.80;0.50;;;13.10;99.90;;;;;;4899296;29;20521;-76
2021/09/18 04:02:20;;;;;;;0.80;0.50;;;13.20;99.90;;;;;;4898810;29;20509;-75
2021/09/18 04:04:49;;;;;;;0.80;0.50;;;13.20;99.90;;;;;;4899217;29;20951;-75
2021/09/18 04:07:17;;;;;;;0.80;0.40;;;13.30;99.90;;;;;;4898262;29;20472;-76
2021/09/18 04:09:45;;;;;;;0.80;0.50;;;13.40;99.90;;;;;;4898405;29;20477;-75
2021/09/18 04:12:13;;;;;;;0.80;0.40;;;13.30;99.90;;;;;;4898767;29;20426;-75
2021/09/18 04:14:41;;;;;;;0.80;0.40;;;13.30;99.90;;;;;;4898655;29;20427;-75
2021/09/18 04:17:11;;;;;;;0.80;0.40;;;13.30;99.90;;;;;;4898093;29;20553;-74
2021/09/18 04:19:39;;;;;;;0.80;0.50;;;13.20;99.90;;;;;;4898025;29;20480;-75
2021/09/18 04:22:07;;;;;;;0.80;0.40;;;13.20;99.90;;;;;;4898095;29;20482;-75
2021/09/18 04:24:36;;;;;;;0.80;0.40;;;13.20;99.90;;;;;;4898358;29;20434;-75
2021/09/18 04:27:04;;;;;;;0.80;0.50;;;13.20;99.90;;;;;;4898309;29;20474;-76
2021/09/18 04:29:32;;;;;;;0.80;0.50;;;13.30;99.90;;;;;;4898606;29;20470;-74
2021/09/18 04:32:00;;;;;;;0.80;0.40;;;13.30;99.90;;;;;;4898144;29;20470;-75
2021/09/18 04:34:29;;;;;;;0.80;0.47;;;13.10;99.90;;;;;;4897974;29;20517;-75
2021/09/18 04:36:57;;;;;;;0.80;0.50;;;13.10;99.90;;;;;;4897655;29;20593;-75
2021/09/18 04:39:26;;;;;;;0.80;0.50;;;13.00;99.90;;;;;;4898004;29;20415;-76
2021/09/18 04:41:54;;;;;;;0.80;0.40;;;12.90;99.90;;;;;;4881167;29;20469;-74
2021/09/18 04:44:22;;;;;;;0.80;0.40;;;13.00;99.90;;;;;;4898027;29;20944;-75
2021/09/18 04:46:50;;;;;;;0.80;0.50;;;13.00;99.90;;;;;;4897838;29;20864;-75
2021/09/18 04:49:18;;;;;;;0.80;0.50;;;13.00;99.90;;;;;;4897413;29;20561;-74
2021/09/18 04:51:47;;;;;;;0.80;0.40;;;13.00;99.90;;;;;;4896782;29;20469;-74
2021/09/18 04:54:15;;;;;;;0.80;0.50;;;13.00;99.90;;;;;;4897568;29;20525;-74
2021/09/18 04:56:43;;;;;;;0.80;0.40;;;13.20;99.90;;;;;;4880898;29;20917;-74
2021/09/18 04:59:11;;;;;;;0.80;0.50;;;13.20;99.90;;;;;;4897405;29;21057;-75
2021/09/18 05:01:39;;;;;;;0.80;0.40;;;13.10;99.90;;;;;;4897881;29;20549;-75
2021/09/18 05:04:08;;;;;;;0.80;0.50;;;13.00;99.90;;;;;;4897822;29;20518;-75
2021/09/18 05:06:36;;;;;;;0.80;0.50;;;13.00;99.90;;;;;;4880389;29;20465;-76
2021/09/18 05:09:05;;;;;;;0.80;0.50;;;12.90;99.90;;;;;;4897475;29;20883;-75
2021/09/18 05:11:33;;;;;;;0.80;0.40;;;12.80;99.90;;;;;;4897530;29;20426;-74
2021/09/18 05:14:01;;;;;;;0.80;0.40;;;12.70;99.90;;;;;;4897021;29;20430;-74
2021/09/18 05:16:29;;;;;;;0.80;0.50;;;12.70;99.90;;;;;;4896865;29;20466;-74
2021/09/18 05:18:58;;;;;;;0.80;0.50;;;12.70;99.90;;;;;;4880027;29;20413;-76
2021/09/18 05:21:26;;;;;;;0.80;0.50;;;12.80;99.90;;;;;;4897009;29;20431;-76
2021/09/18 05:23:55;;;;;;;0.80;0.50;;;12.80;99.90;;;;;;4880102;29;20417;-74
2021/09/18 05:26:24;;;;;;;0.80;0.40;;;12.70;99.90;;;;;;4896714;29;20870;-74
2021/09/18 05:28:53;;;;;;;0.80;0.50;;;12.70;99.90;;;;;;4896866;29;20538;-74
2021/09/18 05:31:21;;;;;;;0.80;0.50;;;12.80;99.90;;;;;;4897235;29;20867;-75
2021/09/18 05:33:49;;;;;;;0.80;0.50;;;12.90;99.90;;;;;;4896919;29;20446;-75
2021/09/18 05:36:18;;;;;;;0.80;0.47;;;12.90;99.90;;;;;;4896706;29;20459;-75
2021/09/18 05:38:46;;;;;;;0.80;0.50;;;12.90;99.90;;;;;;4896566;29;20439;-75
2021/09/18 05:41:14;;;;;;;0.80;0.40;;;13.00;99.90;;;;;;4896676;29;20433;-76
2021/09/18 05:43:44;;;;;;;0.80;0.40;;;13.10;99.90;;;;;;4897219;29;20873;-75
2021/09/18 05:46:12;;;;;;;0.80;0.40;;;13.10;99.90;;;;;;4879879;29;20985;-75
2021/09/18 05:48:40;;;;;;;0.80;0.40;;;13.10;99.90;;;;;;4896262;29;20549;-77
2021/09/18 05:51:08;;;;;;;0.80;0.43;;;13.00;99.90;;;;;;4896054;29;20518;-75
2021/09/18 05:53:37;;;;;;;0.80;0.50;;;13.00;99.90;;;;;;4896601;29;20529;-75
2021/09/18 05:56:06;;;;;;;0.80;0.40;;;13.20;99.90;;;;;;4896595;29;20499;-74
2021/09/18 05:58:34;;;;;;;0.80;0.50;;;13.20;99.90;;;;;;4896650;29;20843;-77
2021/09/18 06:01:03;;;;;;;0.80;0.40;;;13.30;99.90;;;;;;4896461;29;20437;-75
2021/09/18 06:03:32;;;;;;;0.80;0.50;;;13.30;99.90;;;;;;4896331;29;20401;-75
2021/09/18 06:06:00;;;;;;;0.80;0.40;;;13.30;99.90;;;;;;4896382;29;20520;-77
2021/09/18 06:08:29;;;;;;;0.80;0.43;;;13.40;99.90;;;;;;4896369;29;20544;-76
2021/09/18 06:10:57;;;;;;;0.80;0.40;;;13.40;99.90;;;;;;4896815;29;20435;-75
2021/09/18 06:13:25;;;;;;;0.80;0.40;;;13.60;99.90;;;;;;4897076;29;20431;-76
2021/09/18 06:15:53;;;;;;;0.80;0.40;;;13.70;99.90;;;;;;4896968;29;20860;-75
2021/09/18 06:18:24;;;;;;;0.80;0.40;;;13.70;99.90;;;;;;4896877;29;20596;-73
2021/09/18 06:20:52;;;;;;;0.80;0.40;;;13.60;99.90;;;;;;4897134;29;20521;-76
2021/09/18 06:23:22;;;;;;;0.80;0.40;;;13.50;99.90;;;;;;4896615;29;20393;-76
2021/09/18 06:25:50;;;;;;;0.80;0.40;;;13.50;99.90;;;;;;4896430;29;20458;-76
2021/09/18 06:28:18;;;;;;;0.80;0.40;;;13.60;99.90;;;;;;4903521;29;20874;-76
2021/09/18 06:30:47;;;;;;;0.80;0.40;;;13.60;99.90;;;;;;4879238;29;20445;-75
2021/09/18 06:33:15;;;;;;;0.80;0.40;;;13.80;99.90;;;;;;4896442;29;20426;-76
2021/09/18 06:35:44;;;;;;;0.80;0.50;;;13.90;99.90;;;;;;4896819;29;20433;-77
2021/09/18 06:38:12;;;;;;;0.80;0.40;;;13.90;99.90;;;;;;4895940;29;20514;-76
2021/09/18 06:40:40;;;;;;;0.80;0.40;;;13.90;99.90;;;;;;4896520;29;20482;-75
2021/09/18 06:43:08;;;;;;;0.80;0.50;;;13.90;99.90;;;;;;4895964;29;20412;-76
2021/09/18 06:45:36;;;;;;;0.80;0.50;;;13.90;99.90;;;;;;4895963;29;20453;-75
2021/09/18 06:48:04;;;;;;;0.80;0.40;;;14.00;99.90;;;;;;4896065;29;20438;-75
2021/09/18 06:50:33;;;;;;;0.80;0.47;;;14.00;99.90;;;;;;4896257;29;20473;-76
2021/09/18 06:53:02;;;;;;;0.80;0.40;;;14.10;99.90;;;;;;4896690;29;20430;-75
2021/09/18 06:55:30;;;;;;;0.80;0.40;;;14.20;99.90;;;;;;4896418;29;20861;-74
2021/09/18 06:58:00;;;;;;;0.80;0.50;;;14.10;99.90;;;;;;4896886;29;20457;-75
2021/09/18 07:00:29;;;;;;;0.80;0.40;;;14.10;99.90;;;;;;4896696;29;20953;-74
2021/09/18 07:02:57;;;;;;;0.80;0.40;;;14.10;99.90;;;;;;4897067;29;20441;-75
2021/09/18 07:05:25;;;;;;;0.80;0.40;;;14.10;99.90;;;;;;4897340;29;20450;-75
2021/09/18 07:07:53;;;;;;;0.80;0.40;;;14.20;99.90;;;;;;4898585;29;20423;-74
2021/09/18 07:10:23;;;;;;;0.80;0.40;;;14.10;99.90;;;;;;4900259;29;20561;-76
2021/09/18 07:12:51;;;;;;;0.80;0.40;;;14.20;99.90;;;;;;4901631;29;20447;-74
2021/09/18 07:15:19;;;;;;;0.80;0.40;;;14.30;99.90;;;;;;4908076;29;20454;-75
2021/09/18 07:17:48;;;;;;;0.80;0.40;;;14.40;99.90;;;;;;4897834;29;20481;-74
2021/09/18 07:20:16;;;;;;;0.80;0.50;;;14.50;99.90;;;;;;4900613;29;20438;-77
2021/09/18 07:22:44;;;;;;;0.80;0.40;;;14.50;99.90;;;;;;4915037;29;20931;-74
2021/09/18 07:25:13;;;;;;;0.80;0.40;;;14.50;99.90;;;;;;4903990;29;20484;-76
2021/09/18 07:27:42;;;;;;;0.80;0.50;;;14.50;99.90;;;;;;4902948;29;20429;-76
2021/09/18 07:30:11;;;;;;;0.80;0.40;;;14.60;99.90;;;;;;4903308;29;20493;-75
2021/09/18 07:32:39;;;;;;;0.80;0.40;;;14.70;99.90;;;;;;4899482;29;20424;-76
2021/09/18 07:35:07;;;;;;;0.80;0.40;;;14.90;99.90;;;;;;4886751;29;20431;-73
2021/09/18 07:37:36;;;;;;;0.80;0.40;;;15.10;99.90;;;;;;4884534;29;20402;-75
2021/09/18 07:40:07;;;;;;;0.80;0.40;;;15.30;99.90;;;;;;4882384;29;20413;-75
2021/09/18 07:42:36;;;;;;;0.80;0.40;;;15.40;99.90;;;;;;4882907;29;20402;-74
2021/09/18 07:45:07;;;;;;;0.80;0.40;;;15.60;99.90;;;;;;4881457;29;20435;-75
2021/09/18 07:47:35;;;;;;;0.80;0.40;;;15.80;99.90;;;;;;4880624;29;20437;-74
2021/09/18 07:50:05;;;;;;;0.80;0.40;;;16.00;99.90;;;;;;4888379;29;20478;-74
2021/09/18 07:52:33;;;;;;;0.80;0.40;;;16.20;99.90;;;;;;4879871;29;20444;-75
2021/09/18 07:55:01;;;;;;;0.80;0.40;;;16.30;99.90;;;;;;4880563;29;20439;-76
2021/09/18 07:57:49;;;;;;;0.80;0.40;;;16.50;99.90;;;;;;4880105;29;20483;-76
2021/09/18 08:00:19;;;;;;;0.80;0.50;;;16.50;99.90;;;;;;4879896;29;20431;-76
2021/09/18 08:02:47;;;;;;;0.80;0.40;;;16.50;99.90;;;;;;4880157;29;20402;-74
2021/09/18 08:05:15;;;;;;;0.80;0.40;;;16.70;99.90;;;;;;4879889;29;20954;-75
2021/09/18 08:07:43;;;;;;;0.80;0.40;;;17.00;99.90;;;;;;4879629;29;20410;-76
2021/09/18 08:10:13;;;;;;;0.90;0.50;;;17.00;99.90;;;;;;4880261;29;20506;-76
2021/09/18 08:12:44;;;;;;;0.80;0.40;;;17.10;99.90;;;;;;4880004;29;20802;-76
2021/09/18 08:15:13;;;;;;;0.80;0.40;;;17.10;99.90;;;;;;4879926;29;20432;-75
2021/09/18 08:17:42;;;;;;;0.80;0.40;;;17.00;99.90;;;;;;4926631;23;20567;-74
2021/09/18 08:20:12;;;;;;;0.90;0.40;;;17.20;99.90;;;;;;4917501;29;20408;-75
2021/09/18 08:22:45;;;;;;;0.90;0.50;;;17.60;99.90;;;;;;4917428;29;20435;-75
2021/09/18 08:25:13;;;;;;;0.90;0.40;;;17.80;99.90;;;;;;4917945;29;20408;-75
2021/09/18 08:27:41;;;;;;;0.90;0.40;;;18.20;99.90;;;;;;4888179;29;20468;-75
2021/09/18 08:30:10;;;;;;;0.90;0.40;;;18.30;99.90;;;;;;4905362;29;21066;-75
2021/09/18 08:32:39;;;;;;;0.90;0.50;;;18.10;99.90;;;;;;4906066;29;20430;-75
2021/09/18 08:35:10;;;;;;;0.90;0.40;;;18.10;99.90;;;;;;4910218;29;20754;-80
2021/09/18 08:37:39;;;;;;;0.90;0.40;;;18.10;99.90;;;;;;4905657;29;20532;-76
2021/09/18 08:40:09;;;;;;;0.90;0.50;;;17.80;99.90;;;;;;4887424;29;20447;-76
2021/09/18 08:42:39;;;;;;;0.90;0.40;;;17.60;99.90;;;;;;4888598;29;20416;-76
2021/09/18 08:45:12;;;;;;;0.90;0.40;;;17.60;99.90;;;;;;4911655;29;20891;-76
2021/09/18 08:47:42;;;;;;;0.90;0.47;;;17.50;99.90;;;;;;4912107;29;20428;-76
2021/09/18 08:50:15;;;;;;;0.90;0.40;;;17.70;99.90;;;;;;4914169;29;20472;-75
2021/09/18 08:52:45;;;;;;;0.90;0.40;;;18.00;99.90;;;;;;4911277;29;20433;-76
2021/09/18 08:55:14;;;;;;;0.90;0.40;;;18.40;99.90;;;;;;4890570;29;20428;-75
2021/09/18 08:57:43;;;;;;;0.90;0.40;;;18.50;99.90;;;;;;4903422;29;20454;-76
2021/09/18 09:00:43;;;;;;;0.90;0.43;;;18.50;99.90;;;;;;4886104;29;20805;-76
2021/09/18 09:03:13;;;;;;;0.90;0.50;;;18.50;99.90;;;;;;4902505;29;20382;-77
2021/09/18 09:05:45;;;;;;;0.90;0.40;;;18.60;99.90;;;;;;4885690;29;20472;-76
2021/09/18 09:08:15;;;;;;;0.90;0.40;;;18.70;99.90;;;;;;4901453;29;20405;-76
2021/09/18 09:10:45;;;;;;;0.90;0.40;;;18.40;99.90;;;;;;4901940;29;20462;-76
2021/09/18 09:13:15;;;;;;;0.90;0.40;;;18.20;99.90;;;;;;4886604;29;20429;-76
2021/09/18 09:15:44;;;;;;;0.90;0.40;;;18.00;99.90;;;;;;4901100;29;20409;-76
2021/09/18 09:18:20;;;;;;;0.90;0.40;;;17.80;99.90;;;;;;4908847;29;20470;-81
2021/09/18 09:24:04;;;;;;;0.80;0.43;;;17.30;99.90;;;;;;5148292;27;20523;-72
2021/09/18 09:26:32;;;;;;;0.90;0.40;;;16.00;99.90;;;;;;5127427;27;20428;-71
2021/09/18 09:29:01;;;;;;;0.80;0.50;;;15.90;99.90;;;;;;5127212;27;20519;-72
2021/09/18 09:31:29;;;;;;;0.80;0.40;;;15.90;99.90;;;;;;5127292;27;20480;-73
2021/09/18 09:34:01;;;;;;;0.80;0.50;;;16.00;99.90;;;;;;5126829;27;20456;-72
2021/09/18 09:36:31;;;;;;;0.80;0.40;;;16.00;99.90;;;;;;5127259;27;20419;-71
2021/09/18 09:39:04;;;;;;;0.80;0.50;;;16.10;99.90;;;;;;5127289;27;20809;-71
2021/09/18 09:41:38;;;;;;;0.80;0.50;;;16.30;99.90;;;;;;5127187;27;20398;-69
2021/09/18 09:44:10;;;;;;;0.80;0.40;;;16.40;99.90;;;;;;5127442;27;20423;-70
2021/09/18 09:46:38;;;;;;;0.80;0.40;;;16.30;99.90;;;;;;5127187;27;20391;-70
2021/09/18 09:49:12;;;;;;;0.80;0.50;;;16.40;99.90;;;;;;5126595;27;20511;-69
2021/09/18 09:51:42;;;;;;;0.80;0.40;;;16.20;99.90;;;;;;5127363;27;20393;-71
2021/09/18 09:54:23;;;;;;;0.80;0.40;;;16.20;99.90;;;;;;5147577;27;20979;-73
2021/09/18 09:57:10;;;;;;;0.80;0.40;;;16.30;99.90;;;;;;5144273;27;20391;-71
2021/09/18 09:59:39;;;;;;;0.80;0.40;;;16.10;99.90;;;;;;5126147;27;21284;-70
2021/09/18 10:02:09;;;;;;;0.80;0.40;;;16.20;99.90;;;;;;5126204;27;20464;-70
2021/09/18 10:04:38;;;;;;;0.80;0.40;;;16.40;99.90;;;;;;5126090;27;20842;-70
2021/09/18 10:07:08;;;;;;;0.90;0.43;;;16.80;99.90;;;;;;5126245;27;20391;-71
2021/09/18 10:09:40;;;;;;;0.90;0.40;;;17.40;99.90;;;;;;5126239;27;20872;-71
2021/09/18 10:12:11;;;;;;;0.90;0.40;;;17.60;99.90;;;;;;5126445;27;20935;-73
2021/09/18 10:14:42;;;;;;;0.90;0.40;;;17.80;99.90;;;;;;5128240;28;20497;-70
2021/09/18 10:17:11;;;;;;;0.90;0.40;;;17.70;99.90;;;;;;5129769;27;20412;-70
2021/09/18 10:20:05;;;;;;;0.90;0.50;;;17.70;99.90;;;;;;5129615;27;20391;-73
2021/09/18 10:25:23;;;;;;;0.90;0.40;;;18.10;99.90;;;;;;5127484;28;20410;-70
2021/09/18 10:27:59;;;;;;;0.90;0.40;;;17.90;99.90;;;;;;5126513;27;20404;-69
2021/09/18 10:30:31;;;;;;;0.90;0.50;;;17.40;99.90;;;;;;5126624;27;20965;-70
2021/09/18 10:32:59;;;;;;;0.90;0.50;;;17.10;99.90;;;;;;5125630;27;20411;-72
2021/09/18 10:35:29;;;;;;;0.90;0.50;;;16.90;99.90;;;;;;5112922;28;20802;-70
2021/09/18 10:37:58;;;;;;;0.83;0.40;;;16.80;99.90;;;;;;5112352;28;20420;-72
2021/09/18 10:40:28;;;;;;;0.83;0.40;;;16.90;99.90;;;;;;5111005;28;20407;-69
2021/09/18 10:42:56;;;;;;;0.80;0.40;;;17.20;99.90;;;;;;5112122;28;20550;-70
2021/09/18 10:45:41;;;;;;;0.90;0.40;;;17.40;99.90;;;;;;5112503;28;20825;-69
2021/09/18 10:48:57;;;;;;;0.90;0.40;;;17.70;99.90;;;;;;5112223;28;20423;-68
2021/09/18 10:51:35;;;;;;;0.90;0.40;;;17.60;99.90;;;;;;5112293;28;20417;-69
2021/09/18 10:54:05;;;;;;;0.87;0.40;;;17.30;99.90;;;;;;5110220;28;20399;-69
2021/09/18 10:57:01;;;;;;;0.90;0.40;;;16.90;99.90;;;;;;5111310;28;20453;-69
2021/09/18 10:59:47;;;;;;;0.80;0.50;;;16.30;99.90;;;;;;5099415;28;20760;-69
2021/09/18 11:02:49;;;;;;;0.80;0.40;;;16.00;99.90;;;;;;5092251;28;20441;-70
2021/09/18 11:05:46;;;;;;;0.80;0.40;;;15.80;99.90;;;;;;5049940;28;20408;-71
2021/09/18 11:08:24;;;;;;;0.80;0.40;;;16.00;99.90;;;;;;5049295;28;20500;-71
2021/09/18 11:10:54;;;;;;;0.80;0.40;;;16.00;99.90;;;;;;5078754;28;21101;-70
2021/09/18 11:13:27;;;;;;;0.80;0.40;;;16.00;99.90;;;;;;5090251;28;20433;-70
2021/09/18 11:15:57;;;;;;;0.80;0.40;;;16.30;99.90;;;;;;5091284;28;20907;-70
2021/09/18 11:18:32;;;;;;;0.80;0.40;;;16.50;99.90;;;;;;5090995;28;20425;-70
2021/09/18 11:21:01;;;;;;;0.80;0.40;;;16.60;99.90;;;;;;5085354;28;20395;-73
2021/09/18 11:23:34;;;;;;;0.80;0.40;;;16.60;99.90;;;;;;5087265;28;20443;-71
2021/09/18 11:26:24;;;;;;;0.80;0.40;;;16.60;99.90;;;;;;5090445;28;20417;-72
2021/09/18 11:28:54;;;;;;;0.80;0.43;;;16.50;99.90;;;;;;5092175;28;20625;-70
2021/09/18 11:31:22;;;;;;;0.80;0.50;;;16.00;99.90;;;;;;5092431;28;20513;-71
2021/09/18 11:33:51;;;;;;;0.80;0.40;;;15.70;99.90;;;;;;5092594;28;20411;-70
2021/09/18 11:36:19;;;;;;;0.80;0.40;;;15.20;99.90;;;;;;5092470;28;20414;-72
2021/09/18 11:38:47;;;;;;;0.80;0.50;;;14.80;99.90;;;;;;5091962;28;20404;-71
2021/09/18 11:41:16;;;;;;;0.80;0.40;;;14.60;99.90;;;;;;5092889;28;20825;-71
2021/09/18 11:43:44;;;;;;;0.80;0.40;;;14.60;99.90;;;;;;5093428;28;20511;-71
2021/09/18 11:46:24;;;;;;;0.80;0.40;;;14.60;99.90;;;;;;5091974;28;20424;-70
2021/09/18 11:48:59;;;;;;;0.80;0.40;;;14.70;99.90;;;;;;5091715;28;20482;-70
2021/09/18 11:51:27;;;;;;;0.80;0.40;;;15.00;99.90;;;;;;5091007;28;20444;-70
2021/09/18 11:54:00;;;;;;;0.80;0.40;;;15.20;99.90;;;;;;5091853;28;20497;-71
2021/09/18 11:56:28;;;;;;;0.80;0.40;;;15.40;99.90;;;;;;5091951;28;20479;-71
2021/09/18 11:58:56;;;;;;;0.80;0.40;;;15.60;99.90;;;;;;5092521;28;20400;-69
2021/09/18 12:01:26;;;;;;;0.80;0.40;;;15.80;99.90;;;;;;5092002;28;20392;-70
2021/09/18 12:03:54;;;;;;;0.80;0.40;;;16.00;99.90;;;;;;5091252;28;20436;-70
2021/09/18 12:06:22;;;;;;;0.80;0.40;;;16.10;99.90;;;;;;5091590;28;20512;-70
2021/09/18 12:08:50;;;;;;;0.80;0.40;;;16.30;99.90;;;;;;5091315;28;20400;-71
2021/09/18 12:11:20;;;;;;;0.80;0.40;;;16.40;99.90;;;;;;5091729;28;20524;-70
2021/09/18 12:13:51;;;;;;;0.80;0.40;;;16.40;99.90;;;;;;5091368;28;20422;-73
2021/09/18 12:16:20;;;;;;;0.80;0.40;;;16.50;99.90;;;;;;5091666;28;20409;-71
2021/09/18 12:18:51;;;;;;;0.80;0.40;;;16.90;99.90;;;;;;5091971;28;20438;-70
2021/09/18 12:21:22;;;;;;;0.80;0.40;;;17.10;99.90;;;;;;5092832;28;20754;-70
2021/09/18 12:23:55;;;;;;;0.80;0.40;;;17.10;99.90;;;;;;5092681;28;20439;-71
2021/09/18 12:26:25;;;;;;;0.80;0.40;;;17.10;99.90;;;;;;5092257;28;20385;-70
2021/09/18 12:29:05;;;;;;;0.87;0.40;;;17.20;99.90;;;;;;5091252;28;20400;-72
2021/09/18 12:31:34;;;;;;;0.90;0.40;;;17.50;99.90;;;;;;5091358;28;20420;-72
2021/09/18 12:34:09;;;;;;;0.90;0.40;;;17.50;99.90;;;;;;5091326;28;20399;-72
2021/09/18 12:36:38;;;;;;;0.80;0.40;;;17.30;99.90;;;;;;5092114;28;20417;-71
2021/09/18 12:39:07;;;;;;;0.80;0.40;;;17.30;99.90;;;;;;5091956;28;20400;-74
2021/09/18 12:41:37;;;;;;;0.80;0.40;;;17.20;99.90;;;;;;5093865;28;20407;-71
2021/09/18 12:44:11;;;;;;;1.63;1.53;;;16.80;99.90;;;;;;5093197;28;20469;-71
2021/09/18 12:46:41;;;;;;;0.80;0.40;;;16.50;99.90;;;;;;5093693;28;20398;-73
2021/09/18 12:49:12;;;;;;;0.80;0.40;;;16.30;99.90;;;;;;5096440;28;20835;-72
2021/09/18 12:51:43;;;;;;;0.80;0.40;;;16.10;99.90;;;;;;5101616;28;20513;-72
2021/09/18 12:54:16;;;;;;;0.80;0.40;;;16.00;99.90;;;;;;5105716;28;20396;-72
2021/09/18 12:56:45;;;;;;;0.80;0.40;;;15.90;99.90;;;;;;5111124;28;20417;-71
2021/09/18 12:59:16;;;;;;;1.33;1.23;;;15.90;99.90;;;;;;5107992;28;20451;-72
2021/09/18 13:01:46;;;;;;;0.80;0.40;;;15.90;99.90;;;;;;5108899;28;20409;-73
2021/09/18 13:04:18;;;;;;;0.80;0.50;;;16.00;99.90;;;;;;5108589;28;20427;-70
2021/09/18 13:06:58;;;;;;;0.80;0.40;;;16.10;99.90;;;;;;5108254;28;20410;-71
2021/09/18 13:09:31;;;;;;;0.80;0.40;;;16.20;99.90;;;;;;5094868;28;20524;-70